createdAt,value
2018-12-06T05:50:28.199Z,100713.44
2018-12-06T05:53:16.173Z,100704.33
2018-12-06T05:56:03.467Z,100705.16
2018-12-06T05:58:50.713Z,100705.52
2018-12-06T06:01:40.928Z,100699.77
2018-12-06T06:04:27.858Z,100696.16
2018-12-06T06:07:14.871Z,100687.74
2018-12-06T06:10:02.854Z,100683.30
2018-12-06T06:12:50.474Z,100674.52
2018-12-06T06:15:37.874Z,100669.87
2018-12-06T06:18:24.910Z,100671.27
2018-12-06T06:21:11.907Z,100680.64
2018-12-06T06:23:58.832Z,100675.84
2018-12-06T06:26:46.009Z,100671.48
2018-12-06T06:29:33.437Z,100678.91
2018-12-06T06:32:21.732Z,100677.94
2018-12-06T06:35:08.554Z,100673.47
2018-12-06T06:37:55.635Z,100663.16
2018-12-06T06:40:43.116Z,100673.23
2018-12-06T06:43:30.305Z,100674.06
2018-12-06T06:46:17.558Z,100670.94
2018-12-06T06:49:05.134Z,100682.98
2018-12-06T06:51:52.033Z,100681.55
2018-12-06T06:54:39.150Z,100678.34
2018-12-06T07:00:32.874Z,100689.88
2018-12-06T07:03:19.741Z,100688.41
2018-12-06T07:06:06.956Z,100698.31
2018-12-06T07:08:54.325Z,100699.09
2018-12-06T07:11:41.175Z,100697.08
2018-12-06T07:17:35.829Z,100698.80
2018-12-06T07:20:22.951Z,100707.53
2018-12-06T07:23:11.195Z,100711.45
2018-12-06T07:25:58.529Z,100713.17
2018-12-06T07:29:01.312Z,100709.19
2018-12-06T07:31:48.119Z,100707.85
2018-12-06T07:34:36.995Z,100697.34
2018-12-06T07:37:45.815Z,100689.92
2018-12-06T07:43:49.524Z,100697.31
2018-12-06T07:46:39.585Z,100684.53
2018-12-06T07:49:27.021Z,100678.77
2018-12-06T07:52:14.195Z,100688.19
2018-12-06T07:55:01.854Z,100698.09
2018-12-06T07:57:48.771Z,100705.74
2018-12-06T08:00:35.865Z,100714.74
2018-12-06T08:03:22.711Z,100725.05
2018-12-06T08:06:09.663Z,100729.70
2018-12-06T08:08:58.450Z,100735.62
2018-12-06T08:11:45.154Z,100728.09
2018-12-06T08:14:32.240Z,100726.99
2018-12-06T08:17:19.166Z,100735.41
2018-12-06T08:20:06.431Z,100737.63
2018-12-06T08:22:53.635Z,100734.63
2018-12-06T08:25:42.778Z,100738.05
2018-12-06T08:28:28.402Z,100733.48
2018-12-06T08:31:15.956Z,100737.53
2018-12-06T08:34:06.421Z,100737.12
2018-12-06T08:36:51.449Z,100730.56
2018-12-06T08:39:40.881Z,100734.83
2018-12-06T08:42:28.425Z,100731.53
2018-12-06T08:45:24.122Z,100727.16
2018-12-06T08:48:13.789Z,100715.25
2018-12-06T08:51:04.637Z,100712.70
2018-12-06T08:53:51.810Z,100723.17
2018-12-06T08:56:43.346Z,100721.99
2018-12-06T08:59:30.230Z,100722.45
2018-12-06T09:05:23.351Z,100738.86
2018-12-06T09:08:10.288Z,100736.41
2018-12-06T09:10:57.166Z,100732.14
2018-12-06T09:13:46.895Z,100732.53
2018-12-06T09:16:35.682Z,100728.41
2018-12-06T09:19:23.067Z,100726.31
2018-12-06T09:22:09.922Z,100729.08
2018-12-06T09:24:57.026Z,100738.59
2018-12-06T09:27:43.755Z,100736.02
2018-12-06T09:30:30.699Z,100739.02
2018-12-06T09:33:17.509Z,100743.22
2018-12-06T09:36:05.164Z,100755.13
2018-12-06T09:38:51.956Z,100755.61
2018-12-06T09:41:40.336Z,100766.11
2018-12-06T09:44:27.643Z,100757.31
2018-12-06T09:47:14.641Z,100757.55
2018-12-06T09:50:01.771Z,100752.95
2018-12-06T09:52:48.883Z,100744.64
2018-12-06T09:55:36.519Z,100745.99
2018-12-06T09:58:23.699Z,100752.69
2018-12-06T10:01:10.862Z,100754.92
2018-12-06T10:03:58.107Z,100756.24
2018-12-06T10:06:45.528Z,100745.50
2018-12-06T10:09:32.603Z,100743.58
2018-12-06T10:12:19.824Z,100743.77
2018-12-06T10:15:07.046Z,100746.14
2018-12-06T10:17:57.491Z,100747.91
2018-12-06T10:20:55.491Z,100742.31
2018-12-06T10:23:42.567Z,100745.92
2018-12-06T10:26:29.720Z,100761.08
2018-12-06T10:29:16.735Z,100773.38
2018-12-06T10:32:04.091Z,100763.12
2018-12-06T10:34:53.520Z,100750.34
2018-12-06T10:37:38.679Z,100733.62
2018-12-06T10:40:25.775Z,100734.52
2018-12-06T10:43:12.885Z,100721.83
2018-12-06T10:45:59.878Z,100725.28
2018-12-06T10:48:49.546Z,100715.16
2018-12-06T10:51:40.167Z,100710.16
2018-12-06T10:54:27.390Z,100713.12
2018-12-06T10:57:14.200Z,100708.73
2018-12-06T11:00:01.346Z,100704.28
2018-12-06T11:02:48.563Z,100688.91
2018-12-06T11:05:35.766Z,100681.88
2018-12-06T11:08:23.130Z,100687.09
2018-12-06T11:11:13.140Z,100684.91
2018-12-06T11:14:00.255Z,100682.23
2018-12-06T11:16:47.369Z,100679.59
2018-12-06T11:19:34.756Z,100667.67
2018-12-06T11:22:21.935Z,100664.77
2018-12-06T11:25:08.878Z,100661.38
2018-12-06T11:27:56.566Z,100659.38
2018-12-06T11:30:43.360Z,100649.70
2018-12-06T11:33:30.672Z,100650.11
2018-12-06T11:36:18.138Z,100639.75
2018-12-06T11:39:04.947Z,100634.69
2018-12-06T11:41:52.121Z,100631.34
2018-12-06T11:44:39.376Z,100620.93
2018-12-06T11:47:26.783Z,100624.33
2018-12-06T11:50:13.631Z,100629.57
2018-12-06T11:53:00.635Z,100634.81
2018-12-06T11:55:48.107Z,100640.84
2018-12-06T11:58:35.168Z,100648.05
2018-12-06T12:01:23.004Z,100637.92
2018-12-06T12:04:10.227Z,100652.72
2018-12-06T12:07:05.065Z,100651.22
2018-12-06T12:09:57.072Z,100647.82
2018-12-06T12:12:43.847Z,100639.52
2018-12-06T12:15:31.282Z,100643.23
2018-12-06T12:18:18.670Z,100655.95
2018-12-06T12:21:05.812Z,100657.03
2018-12-06T12:23:53.190Z,100658.80
2018-12-06T12:26:40.198Z,100666.09
2018-12-06T12:29:27.359Z,100664.09
2018-12-06T12:32:14.273Z,100675.30
2018-12-06T12:35:01.746Z,100663.72
2018-12-06T12:37:48.933Z,100660.31
2018-12-06T12:40:36.327Z,100654.33
2018-12-06T12:43:23.355Z,100653.52
2018-12-06T12:46:10.573Z,100650.83
2018-12-06T12:49:05.044Z,100656.16
2018-12-06T12:51:58.707Z,100642.52
2018-12-06T12:54:45.579Z,100642.67
2018-12-06T12:57:32.323Z,100642.86
2018-12-06T13:00:20.611Z,100629.48
2018-12-06T13:03:07.997Z,100647.39
2018-12-06T13:05:54.871Z,100632.52
2018-12-06T13:08:41.665Z,100641.47
2018-12-06T13:11:28.626Z,100645.38
2018-12-06T13:14:15.758Z,100641.09
2018-12-06T13:17:02.746Z,100639.95
2018-12-06T13:19:50.547Z,100638.48
2018-12-06T13:22:42.991Z,100637.50
2018-12-06T13:25:32.041Z,100637.12
2018-12-06T13:28:18.652Z,100648.28
2018-12-06T13:31:07.815Z,100649.22
2018-12-06T13:33:56.887Z,100639.92
2018-12-06T13:36:43.926Z,100648.41
2018-12-06T13:39:30.941Z,100649.31
2018-12-06T13:42:23.543Z,100651.61
2018-12-06T13:45:06.340Z,100660.30
2018-12-06T13:47:56.400Z,100665.87
2018-12-06T13:50:43.445Z,100652.34
2018-12-06T13:53:30.384Z,100662.52
2018-12-06T13:56:17.447Z,100672.35
2018-12-06T13:59:05.987Z,100661.39
2018-12-06T14:01:52.788Z,100662.05
2018-12-06T14:07:46.667Z,100667.12
2018-12-06T14:10:33.420Z,100668.48
2018-12-06T14:13:23.681Z,100655.38
2018-12-06T14:22:20.373Z,100653.78
2018-12-06T14:25:07.428Z,100661.08
2018-12-06T14:27:54.179Z,100668.66
2018-12-06T14:30:42.847Z,100656.43
2018-12-06T14:33:30.837Z,100661.70
2018-12-06T14:36:22.446Z,100674.41
2018-12-06T14:39:09.248Z,100673.07
2018-12-06T14:41:56.427Z,100658.20
2018-12-06T14:44:43.800Z,100664.16
2018-12-06T14:47:32.649Z,100660.02
2018-12-06T14:50:19.590Z,100667.57
2018-12-06T14:53:07.030Z,100671.11
2018-12-06T14:55:54.255Z,100677.54
2018-12-06T14:58:40.892Z,100682.40
2018-12-06T15:01:28.024Z,100684.85
2018-12-06T15:04:15.180Z,100681.20
2018-12-06T15:07:02.306Z,100675.11
2018-12-06T15:09:49.834Z,100678.22
2018-12-06T15:12:36.851Z,100670.44
2018-12-06T15:15:23.999Z,100672.77
2018-12-06T15:18:12.431Z,100662.67
2018-12-06T15:21:03.716Z,100670.66
2018-12-06T15:23:51.750Z,100681.75
2018-12-06T15:26:39.384Z,100689.33
2018-12-06T15:29:27.413Z,100681.97
2018-12-06T15:32:16.489Z,100683.45
2018-12-06T15:35:03.726Z,100683.77
2018-12-06T15:37:55.732Z,100686.10
2018-12-06T15:40:43.953Z,100689.52
2018-12-06T15:43:32.230Z,100686.45
2018-12-06T15:46:21.282Z,100686.03
2018-12-06T15:49:09.590Z,100698.97
2018-12-06T15:52:01.128Z,100701.72
2018-12-06T15:54:48.804Z,100698.92
2018-12-06T15:57:36.446Z,100698.15
2018-12-06T16:00:24.521Z,100710.56
2018-12-06T16:03:12.868Z,100711.36
2018-12-06T16:06:02.237Z,100694.34
2018-12-06T16:08:54.369Z,100697.61
2018-12-06T16:11:48.091Z,100693.02
2018-12-06T16:14:40.287Z,100690.57
2018-12-06T16:17:28.650Z,100677.59
2018-12-06T16:20:17.510Z,100687.66
2018-12-06T16:26:14.043Z,100694.37
2018-12-06T16:29:09.029Z,100700.63
2018-12-06T16:35:03.716Z,100687.61
2018-12-06T16:37:51.382Z,100694.75
2018-12-06T16:40:38.988Z,100695.93
2018-12-06T16:43:27.610Z,100689.98
2018-12-06T16:46:16.808Z,100677.27
2018-12-06T16:49:10.097Z,100676.50
2018-12-06T16:51:53.463Z,100690.38
2018-12-06T16:54:45.103Z,100689.52
2018-12-06T16:57:33.107Z,100688.63
2018-12-06T17:00:21.199Z,100677.16
2018-12-06T17:03:22.592Z,100677.20
2018-12-06T17:06:11.868Z,100672.39
2018-12-06T17:08:58.533Z,100666.17
2018-12-06T17:11:45.564Z,100673.63
2018-12-06T17:14:33.244Z,100681.05
2018-12-06T17:17:25.597Z,100687.62
2018-12-06T17:20:12.921Z,100682.17
2018-12-06T17:22:59.889Z,100688.36
2018-12-06T17:25:50.120Z,100696.55
2018-12-06T17:28:38.519Z,100690.11
2018-12-06T17:31:27.992Z,100681.79
2018-12-06T17:34:35.698Z,100686.14
2018-12-06T17:37:25.159Z,100688.47
2018-12-06T17:40:16.919Z,100688.01
2018-12-06T17:43:15.819Z,100677.94
2018-12-06T17:46:04.750Z,100693.88
2018-12-06T17:52:13.095Z,100687.78
2018-12-06T17:55:00.428Z,100707.13
2018-12-06T17:57:52.652Z,100691.78
2018-12-06T18:00:39.714Z,100703.04
2018-12-06T18:03:26.664Z,100699.05
2018-12-06T18:06:15.947Z,100702.92
2018-12-06T18:09:05.975Z,100705.61
2018-12-06T18:11:53.364Z,100703.55
2018-12-06T18:14:40.177Z,100701.86
2018-12-06T18:17:27.466Z,100704.92
2018-12-06T18:20:14.330Z,100700.84
2018-12-06T18:23:01.482Z,100706.66
2018-12-06T18:25:50.779Z,100713.05
2018-12-06T18:28:43.471Z,100696.62
2018-12-06T18:31:31.756Z,100683.45
2018-12-06T18:34:18.897Z,100690.28
2018-12-06T18:37:08.353Z,100703.91
2018-12-06T18:40:00.337Z,100695.47
2018-12-06T18:42:57.892Z,100704.83
2018-12-06T18:45:50.213Z,100708.83
2018-12-06T18:48:39.921Z,100695.50
2018-12-06T18:51:33.524Z,100702.77
2018-12-06T18:54:22.993Z,100702.61
2018-12-06T18:57:13.386Z,100701.95
2018-12-06T19:00:02.311Z,100699.27
2018-12-06T19:02:52.151Z,100710.96
2018-12-06T19:05:39.375Z,100705.75
2018-12-06T19:08:45.502Z,100703.23
2018-12-06T19:11:41.326Z,100697.95
2018-12-06T19:17:44.151Z,100685.93
2018-12-06T19:20:34.589Z,100685.66
2018-12-06T19:23:22.751Z,100675.58
2018-12-06T19:26:11.674Z,100670.28
2018-12-06T19:28:59.131Z,100679.25
2018-12-06T19:31:46.655Z,100670.63
2018-12-06T19:34:35.046Z,100671.86
2018-12-06T19:37:24.678Z,100668.65
2018-12-06T19:40:16.171Z,100672.58
2018-12-06T19:43:04.011Z,100664.42
2018-12-06T19:45:51.833Z,100673.34
2018-12-06T19:48:40.892Z,100669.91
2018-12-06T19:51:32.895Z,100665.73
2018-12-06T19:54:20.531Z,100663.00
2018-12-06T19:57:08.000Z,100658.75
2018-12-06T19:59:55.403Z,100654.34
2018-12-06T20:05:49.480Z,100647.48
2018-12-06T20:08:36.552Z,100649.09
2018-12-06T20:11:32.943Z,100647.95
2018-12-06T20:14:23.122Z,100640.72
2018-12-06T20:17:11.518Z,100644.32
2018-12-06T20:20:23.376Z,100645.32
2018-12-06T20:29:27.042Z,100626.80
2018-12-06T20:32:15.407Z,100617.81
2018-12-06T20:35:04.626Z,100616.64
2018-12-06T20:37:53.614Z,100615.10
2018-12-06T20:40:42.083Z,100608.69
2018-12-06T20:43:31.646Z,100605.55
2018-12-06T20:46:20.872Z,100602.70
2018-12-06T20:49:08.506Z,100610.44
2018-12-06T20:51:57.780Z,100615.60
2018-12-06T20:57:55.084Z,100609.97
2018-12-06T21:03:51.750Z,100611.81
2018-12-06T21:06:45.605Z,100605.85
2018-12-06T21:12:52.562Z,100603.91
2018-12-06T21:25:03.795Z,100612.53
2018-12-06T21:27:51.296Z,100607.05
2018-12-06T21:30:38.971Z,100606.66
2018-12-06T21:33:26.486Z,100605.81
2018-12-06T21:36:17.120Z,100600.45
2018-12-06T21:39:07.892Z,100594.13
2018-12-06T21:41:58.189Z,100592.89
2018-12-06T21:44:45.140Z,100593.70
2018-12-06T21:47:44.546Z,100584.08
2018-12-06T21:50:33.474Z,100575.43
2018-12-06T21:56:28.141Z,100566.38
2018-12-06T21:59:15.689Z,100572.39
2018-12-06T22:05:31.396Z,100565.27
2018-12-06T22:08:20.668Z,100571.44
2018-12-06T22:11:07.542Z,100572.34
2018-12-06T22:13:55.175Z,100564.28
2018-12-06T22:16:42.316Z,100559.92
2018-12-06T22:19:29.279Z,100559.17
2018-12-06T22:22:16.173Z,100553.04
2018-12-06T22:25:02.880Z,100555.31
2018-12-06T22:27:50.048Z,100560.27
2018-12-06T22:30:37.445Z,100552.11
2018-12-06T22:33:24.479Z,100552.14
2018-12-06T22:36:11.797Z,100543.40
2018-12-06T22:39:00.611Z,100534.41
2018-12-06T22:41:47.784Z,100539.83
2018-12-06T22:44:35.062Z,100538.50
2018-12-06T22:50:29.113Z,100541.96
2018-12-06T22:53:16.745Z,100535.02
2018-12-06T22:56:05.684Z,100533.53
2018-12-06T22:58:52.819Z,100526.97
2018-12-06T23:01:41.190Z,100522.75
2018-12-06T23:04:28.541Z,100524.44
2018-12-06T23:07:16.514Z,100512.48
2018-12-06T23:16:19.666Z,100512.11
2018-12-06T23:19:10.102Z,100506.91
2018-12-06T23:25:05.898Z,100500.00
2018-12-06T23:31:02.266Z,100505.52
2018-12-06T23:33:50.408Z,100504.17
2018-12-06T23:36:37.213Z,100502.34
2018-12-06T23:42:31.437Z,100494.36
2018-12-06T23:45:21.767Z,100506.86
2018-12-06T23:48:09.171Z,100502.32
2018-12-06T23:51:10.382Z,100495.54
2018-12-06T23:53:57.626Z,100490.55
2018-12-06T23:56:45.586Z,100484.14
2018-12-06T23:59:34.106Z,100481.19
